Gosport, Indiana
Current Conditions -  °F | °C
As of 4:09 PM on Friday 31 Oct 2014 (Local Time) from KBMG Reporting Station
Light Rain Light Rain  
Wind Chill: 29°   Ceiling: 2500
Heat Index: 37°   Visibility: 4mi
Dew Point: 33°   Wind: 13mph
Humidity: 86%   Direction: 310°NW
Pressure: 30.04"   Gusts: 28mph
Location:  39.35°N, 86.67°W
Report Text: KBMG 312009Z 31011G24KT 4SM -RA BR FEW018 BKN025 OVC044 03/01 A3004 RMK AO2 RAB01 P0001 T00280006
Loading
Personal Weather Stations






























Interactive Weather Map
Tropical Storm Tracking
New forecast layout! Learn more

10-Day Weather Forecast

Advertisements
Track Severe Weather on mobile